Time;durP1;ratioP1;P1;durP2;ratioP2;P2;SDS_P1;SDS_P2;PMS_P1;PMS_P2;Temp;Humidity;BMP_temperature;BMP_pressure;BME280_temperature;BME280_humidity;BME280_pressure;Samples;Min_cycle;Max_cycle;Signal;HPM_P1;HPM_P2
2024/03/09 07:49:51;;;;;;;89.50;40.20;;;;;;;2.49;92.64;100124.61;105897;1301;543198;-83
2024/03/09 07:52:45;;;;;;;87.70;39.80;;;;;;;2.60;92.62;100123.83;109318;1262;23273;-83
2024/03/09 07:55:37;;;;;;;81.40;35.90;;;;;;;2.71;92.52;100120.50;109420;1268;22522;-84
2024/03/09 07:58:29;;;;;;;80.50;35.70;;;;;;;2.84;92.72;100115.23;109738;1265;23014;-83
2024/03/09 08:01:21;;;;;;;80.30;37.20;;;;;;;2.97;92.60;100112.73;109326;1266;22664;-84
2024/03/09 08:04:21;;;;;;;78.90;33.60;;;;;;;3.10;92.69;100115.89;108919;1267;915018;-85
2024/03/09 08:07:14;;;;;;;81.30;36.60;;;;;;;3.21;92.47;100111.02;109310;1264;22512;-85
2024/03/09 08:10:09;;;;;;;89.40;38.00;;;;;;;3.30;92.42;100109.14;109195;1265;23302;-83
2024/03/09 08:13:05;;;;;;;77.50;31.80;;;;;;;3.43;92.62;100110.14;109269;1264;22582;-85
2024/03/09 08:15:58;;;;;;;71.80;31.80;;;;;;;3.58;92.66;100107.45;108693;1271;23321;-84
2024/03/09 08:18:50;;;;;;;67.20;30.70;;;;;;;3.75;92.64;100108.03;108598;1267;25399;-86
2024/03/09 08:21:43;;;;;;;62.40;30.50;;;;;;;3.87;92.36;100105.63;108800;1271;24302;-84
2024/03/09 08:24:36;;;;;;;71.10;30.90;;;;;;;4.03;92.24;100106.85;109206;1271;22566;-84
2024/03/09 08:27:33;;;;;;;60.80;27.50;;;;;;;4.18;92.05;100102.25;108732;1264;25458;-85
2024/03/09 08:30:31;;;;;;;55.50;26.40;;;;;;;4.38;91.51;100101.17;109019;1267;22561;-86
2024/03/09 08:33:26;;;;;;;64.40;27.10;;;;;;;4.55;90.78;100098.91;108562;1264;22522;-86
2024/03/09 08:36:22;;;;;;;54.80;26.30;;;;;;;4.72;90.37;100099.48;108498;1270;25231;-86
2024/03/09 08:39:15;;;;;;;56.80;24.60;;;;;;;4.86;90.20;100097.64;108920;1263;22686;-86
2024/03/09 08:42:11;;;;;;;58.00;25.30;;;;;;;4.98;89.80;100094.47;109425;1268;22556;-86
2024/03/09 08:45:09;;;;;;;57.30;24.60;;;;;;;5.10;89.30;100095.58;111015;1269;22105;-87
2024/03/09 08:48:03;;;;;;;53.50;22.90;;;;;;;5.22;89.07;100093.83;109229;1271;22532;-86
2024/03/09 08:51:01;;;;;;;48.50;22.10;;;;;;;5.33;88.79;100095.89;109576;1271;26115;-85
2024/03/09 08:53:56;;;;;;;48.20;20.80;;;;;;;5.47;88.45;100091.21;110994;1271;22085;-85
2024/03/09 08:56:52;;;;;;;45.50;21.80;;;;;;;5.62;88.33;100087.53;111025;1271;22885;-86
2024/03/09 08:59:46;;;;;;;44.10;20.00;;;;;;;5.71;88.02;100085.70;110683;1271;22530;-87
2024/03/09 09:02:41;;;;;;;40.70;20.50;;;;;;;5.84;87.81;100083.60;108500;1271;22653;-86
2024/03/09 09:05:37;;;;;;;41.80;18.00;;;;;;;5.96;87.37;100081.80;109744;1271;22958;-85
2024/03/09 09:08:36;;;;;;;42.90;18.90;;;;;;;6.08;86.86;100077.68;111052;1271;22269;-87
2024/03/09 09:11:33;;;;;;;42.00;19.10;;;;;;;6.26;86.55;100073.58;110820;1268;22959;-87
2024/03/09 09:14:35;;;;;;;34.80;15.70;;;;;;;6.44;86.15;100070.52;108248;1270;23926;-86
2024/03/09 09:17:29;;;;;;;36.80;15.40;;;;;;;6.58;85.65;100067.60;108399;1265;25271;-85
2024/03/09 09:20:34;;;;;;;34.10;13.70;;;;;;;6.69;84.59;100061.13;111009;1264;22367;-87
2024/03/09 09:23:47;;;;;;;35.10;14.90;;;;;;;6.78;84.28;100055.38;110614;1268;22652;-88
2024/03/09 09:26:58;;;;;;;34.90;13.00;;;;;;;6.89;83.91;100046.43;110652;1264;22618;-89
2024/03/09 09:30:06;;;;;;;33.20;13.40;;;;;;;6.97;83.90;100043.73;110462;1271;22539;-88
2024/03/09 09:33:16;;;;;;;33.60;13.90;;;;;;;7.07;82.84;100038.17;111003;1266;22574;-87
2024/03/09 09:39:33;;;;;;;30.60;12.70;;;;;;;7.28;82.92;100033.11;110991;1264;22912;-88
2024/03/09 09:42:47;;;;;;;31.70;12.90;;;;;;;7.45;82.03;100028.31;109037;1267;24219;-87
2024/03/09 09:45:51;;;;;;;28.40;12.80;;;;;;;7.56;81.83;100026.20;110994;1268;22326;-88
2024/03/09 09:49:08;;;;;;;29.60;12.10;;;;;;;7.65;81.74;100019.53;110983;1271;22740;-87
2024/03/09 09:52:36;;;;;;;22.90;9.10;;;;;;;7.76;80.76;100024.19;110954;1268;22288;-88
2024/03/09 09:55:59;;;;;;;24.00;10.10;;;;;;;7.83;79.02;100018.50;110954;1271;22158;-88
2024/03/09 09:59:16;;;;;;;23.50;7.60;;;;;;;7.95;78.69;100011.42;110999;1260;22191;-87
2024/03/09 10:02:24;;;;;;;25.70;9.20;;;;;;;8.04;77.95;100004.65;110980;1268;22569;-88
2024/03/09 10:05:57;;;;;;;23.80;9.90;;;;;;;8.14;78.47;100003.88;109236;1272;23859;-88
2024/03/09 10:09:12;;;;;;;23.10;9.40;;;;;;;8.25;77.41;100005.27;110895;1267;22101;-88
2024/03/09 10:12:49;;;;;;;24.70;9.90;;;;;;;8.30;77.37;99998.64;110862;1265;23626;-88
2024/03/09 10:16:39;;;;;;;23.60;10.20;;;;;;;8.38;77.11;99984.27;105375;1307;543062;-87
2024/03/09 10:20:13;;;;;;;24.50;10.70;;;;;;;8.40;76.15;99974.48;110701;1274;22114;-87
2024/03/09 10:23:37;;;;;;;25.30;10.70;;;;;;;8.46;76.52;99966.78;109970;1273;22665;-87
2024/03/09 10:26:47;;;;;;;26.50;10.20;;;;;;;8.52;76.15;99965.27;109406;1270;23602;-87
2024/03/09 10:30:58;;;;;;;27.90;11.00;;;;;;;8.60;76.01;99962.91;105842;1271;5372668;-87
2024/03/09 10:34:08;;;;;;;25.40;9.80;;;;;;;8.71;75.58;99958.16;109843;1267;23900;-87
2024/03/09 10:37:55;;;;;;;25.70;10.20;;;;;;;8.76;75.26;99965.35;110620;1268;22522;-86
2024/03/09 10:41:19;;;;;;;26.40;10.40;;;;;;;8.84;75.21;99959.90;111026;1271;22169;-87
2024/03/09 10:44:15;;;;;;;25.60;11.10;;;;;;;8.91;74.53;99956.57;110929;1264;22150;-87
2024/03/09 10:47:26;;;;;;;26.30;10.80;;;;;;;8.97;74.95;99955.83;110908;1268;22151;-87
2024/03/09 10:50:46;;;;;;;30.10;11.90;;;;;;;9.06;74.30;99959.40;110929;1271;22122;-87
2024/03/09 10:54:06;;;;;;;26.70;11.50;;;;;;;9.12;73.80;99954.80;110977;1271;22085;-87
2024/03/09 10:57:11;;;;;;;29.10;11.60;;;;;;;9.19;74.42;99953.57;110933;1270;22068;-87
2024/03/09 11:00:59;;;;;;;27.50;11.40;;;;;;;9.23;73.86;99953.77;110917;1264;22365;-87
2024/03/09 11:04:15;;;;;;;24.90;10.30;;;;;;;9.33;73.55;99945.34;110891;1271;22147;-88
2024/03/09 11:07:13;;;;;;;22.50;9.70;;;;;;;9.43;73.21;99934.79;111029;1270;22151;-88
2024/03/09 11:10:14;;;;;;;22.70;8.90;;;;;;;9.49;72.61;99936.58;111010;1264;23143;-87
2024/03/09 11:13:53;;;;;;;21.40;9.30;;;;;;;9.54;71.59;99941.34;110996;1270;22156;-87
2024/03/09 11:17:12;;;;;;;22.90;9.50;;;;;;;9.54;71.65;99940.13;110999;1271;22247;-87
2024/03/09 11:20:50;;;;;;;22.30;8.60;;;;;;;9.51;71.21;99932.58;111034;1271;22113;-87
2024/03/09 11:24:20;;;;;;;21.00;6.70;;;;;;;9.59;70.89;99924.30;110893;1264;22239;-88
2024/03/09 11:27:40;;;;;;;16.90;5.80;;;;;;;9.67;70.48;99917.77;110987;1264;23075;-88
2024/03/09 11:31:14;;;;;;;18.10;6.60;;;;;;;9.82;69.91;99912.03;110931;1271;22147;-88
2024/03/09 11:34:48;;;;;;;19.10;7.90;;;;;;;9.88;69.35;99916.02;110949;1265;22829;-87
2024/03/09 11:38:35;;;;;;;20.80;7.30;;;;;;;9.95;69.59;99916.39;110908;1265;22118;-88
2024/03/09 11:41:46;;;;;;;18.50;6.40;;;;;;;10.19;69.50;99906.51;109831;1271;22631;-87
2024/03/09 11:45:10;;;;;;;17.00;5.50;;;;;;;10.29;68.29;99899.40;110960;1271;22934;-88
2024/03/09 11:48:31;;;;;;;18.90;6.50;;;;;;;10.37;67.70;99897.74;110937;1264;22086;-88
2024/03/09 11:52:02;;;;;;;18.10;6.90;;;;;;;10.43;67.38;99888.29;110942;1264;22261;-88
2024/03/09 11:55:47;;;;;;;19.20;7.20;;;;;;;10.53;67.10;99891.36;110872;1272;22149;-88
2024/03/09 11:59:27;;;;;;;21.10;7.40;;;;;;;10.58;66.75;99889.62;110917;1271;22779;-89
2024/03/09 12:02:28;;;;;;;18.00;6.40;;;;;;;10.58;66.59;99891.80;110995;1264;22151;-89
2024/03/09 12:06:11;;;;;;;18.40;6.70;;;;;;;10.56;66.20;99888.96;110927;1268;22152;-88
2024/03/09 12:09:33;;;;;;;20.10;6.90;;;;;;;10.50;65.65;99884.38;111010;1271;22825;-88
2024/03/09 12:13:04;;;;;;;18.60;6.90;;;;;;;10.48;66.40;99879.87;111123;1249;22158;-89
2024/03/09 12:16:44;;;;;;;20.00;8.40;;;;;;;10.54;66.15;99878.23;110974;1268;22166;-88
2024/03/09 12:19:53;;;;;;;20.10;8.20;;;;;;;10.55;65.83;99879.47;110964;1264;22123;-88
2024/03/09 12:22:52;;;;;;;19.80;8.20;;;;;;;10.54;65.71;99880.02;111142;1269;22340;-88
2024/03/09 12:25:58;;;;;;;22.70;8.50;;;;;;;10.51;65.12;99871.14;110982;1264;22165;-88
2024/03/09 12:28:51;;;;;;;20.80;8.60;;;;;;;10.50;64.59;99867.84;110976;1264;22114;-87
2024/03/09 12:31:44;;;;;;;26.50;10.00;;;;;;;10.51;64.27;99875.45;110794;1270;22557;-87
2024/03/09 12:34:36;;;;;;;22.60;8.60;;;;;;;10.52;64.44;99867.75;110775;1270;22139;-87
2024/03/09 12:37:29;;;;;;;21.00;9.40;;;;;;;10.51;64.69;99862.41;110745;1270;22128;-87
2024/03/09 12:40:21;;;;;;;19.90;8.20;;;;;;;10.52;64.20;99859.78;110911;1269;22173;-87
2024/03/09 12:43:14;;;;;;;20.30;8.20;;;;;;;10.48;64.16;99856.86;110901;1264;22330;-87
2024/03/09 12:46:07;;;;;;;20.20;8.20;;;;;;;10.46;64.33;99854.69;110951;1264;22722;-87
2024/03/09 12:48:58;;;;;;;21.40;9.00;;;;;;;10.45;64.59;99853.55;110864;1261;22279;-87
2024/03/09 12:51:51;;;;;;;21.40;9.00;;;;;;;10.43;64.23;99855.87;110831;1268;22791;-88
2024/03/09 12:54:45;;;;;;;24.10;10.40;;;;;;;10.42;64.06;99847.99;110961;1271;22142;-87
2024/03/09 12:57:37;;;;;;;23.20;10.00;;;;;;;10.42;64.33;99847.03;110930;1271;22185;-88
2024/03/09 13:00:31;;;;;;;24.00;9.80;;;;;;;10.41;63.95;99847.57;110901;1264;22099;-87
2024/03/09 13:03:24;;;;;;;22.80;8.50;;;;;;;10.39;63.84;99842.17;110711;1271;22358;-87
2024/03/09 13:06:17;;;;;;;28.20;11.60;;;;;;;10.39;63.60;99843.33;110961;1265;22289;-87
2024/03/09 13:09:11;;;;;;;21.50;9.40;;;;;;;10.38;64.00;99841.14;111002;1264;23132;-88
2024/03/09 13:12:05;;;;;;;25.20;10.50;;;;;;;10.38;64.25;99839.86;110942;1264;22155;-87
2024/03/09 13:14:56;;;;;;;30.40;10.60;;;;;;;10.36;63.79;99834.05;110903;1270;22144;-87
2024/03/09 13:17:48;;;;;;;25.40;10.10;;;;;;;10.35;64.13;99834.30;110952;1270;22243;-87
2024/03/09 13:20:41;;;;;;;22.30;8.60;;;;;;;10.34;64.02;99832.70;110937;1262;22321;-87
2024/03/09 13:23:33;;;;;;;22.20;9.50;;;;;;;10.33;63.98;99828.09;110939;1271;23128;-87
2024/03/09 13:26:27;;;;;;;26.70;11.50;;;;;;;10.35;64.41;99824.87;110903;1264;22099;-87
2024/03/09 13:29:27;;;;;;;23.20;10.10;;;;;;;10.40;64.59;99822.27;110936;1264;23037;-86
2024/03/09 13:32:19;;;;;;;26.40;10.00;;;;;;;10.41;63.83;99814.73;111019;1264;22114;-87
2024/03/09 13:35:14;;;;;;;22.90;10.20;;;;;;;10.39;63.86;99812.69;111006;1264;23106;-87
2024/03/09 13:38:06;;;;;;;22.90;8.80;;;;;;;10.36;63.86;99807.32;110923;1264;22192;-87
2024/03/09 13:41:01;;;;;;;25.90;8.80;;;;;;;10.33;63.21;99804.60;110812;1263;22096;-86
2024/03/09 13:43:56;;;;;;;23.40;9.10;;;;;;;10.31;63.14;99803.61;110978;1270;22133;-86
2024/03/09 13:46:48;;;;;;;19.50;7.60;;;;;;;10.31;63.51;99804.00;110988;1267;22382;-86
2024/03/09 13:49:41;;;;;;;28.90;11.70;;;;;;;10.34;63.62;99795.08;110866;1270;22154;-86
2024/03/09 13:52:35;;;;;;;27.90;10.60;;;;;;;10.38;63.77;99791.77;110994;1270;22243;-87
2024/03/09 13:55:29;;;;;;;30.30;11.30;;;;;;;10.41;63.69;99790.34;110925;1263;22928;-87
2024/03/09 13:58:20;;;;;;;31.50;11.40;;;;;;;10.45;63.94;99788.91;110861;1268;23018;-87
2024/03/09 14:01:19;;;;;;;31.70;11.90;;;;;;;10.48;64.03;99785.45;110961;1264;22564;-87
2024/03/09 14:04:13;;;;;;;23.30;10.90;;;;;;;10.50;64.26;99777.98;110970;1267;22702;-87
2024/03/09 14:07:07;;;;;;;24.70;10.40;;;;;;;10.52;63.66;99771.75;110964;1264;22325;-87
2024/03/09 14:10:01;;;;;;;20.20;8.20;;;;;;;10.51;63.52;99767.08;110905;1270;22302;-87
2024/03/09 14:12:53;;;;;;;20.90;8.60;;;;;;;10.50;63.05;99765.94;110951;1270;22922;-87
2024/03/09 14:15:48;;;;;;;27.40;9.30;;;;;;;10.48;63.18;99766.54;111025;1263;22115;-86
2024/03/09 14:18:41;;;;;;;22.20;8.80;;;;;;;10.48;63.35;99758.88;111001;1255;22148;-87
2024/03/09 14:21:33;;;;;;;23.90;10.30;;;;;;;10.49;63.07;99756.65;110891;1270;22365;-86
2024/03/09 14:24:24;;;;;;;22.70;8.50;;;;;;;10.48;63.05;99758.88;110961;1264;22292;-87
2024/03/09 14:27:18;;;;;;;22.40;8.30;;;;;;;10.48;63.05;99749.73;110983;1264;22336;-86
2024/03/09 14:30:11;;;;;;;23.40;8.90;;;;;;;10.48;63.22;99747.30;110981;1264;22486;-86
2024/03/09 14:33:04;;;;;;;22.50;9.00;;;;;;;10.49;63.02;99745.13;110984;1263;23155;-85
2024/03/09 14:35:57;;;;;;;23.70;9.20;;;;;;;10.48;62.97;99744.36;110903;1264;22321;-87
2024/03/09 14:38:54;;;;;;;21.20;9.00;;;;;;;10.47;62.99;99748.95;110927;1270;22117;-86
2024/03/09 14:41:46;;;;;;;21.70;7.80;;;;;;;10.47;62.76;99750.11;110921;1271;22952;-86
2024/03/09 14:44:37;;;;;;;22.50;8.90;;;;;;;10.46;62.75;99752.75;110991;1265;22240;-86
2024/03/09 14:47:29;;;;;;;23.90;9.20;;;;;;;10.44;62.53;99748.63;110988;1264;22080;-86
2024/03/09 14:50:22;;;;;;;22.90;7.80;;;;;;;10.43;62.80;99745.31;110959;1264;22144;-85
2024/03/09 14:53:14;;;;;;;24.00;9.30;;;;;;;10.42;62.62;99742.05;110991;1264;22336;-87
2024/03/09 14:56:08;;;;;;;24.50;10.20;;;;;;;10.41;62.61;99739.55;110969;1271;22249;-86
2024/03/09 14:59:07;;;;;;;22.00;9.20;;;;;;;10.40;62.72;99737.82;111016;1271;22107;-87
2024/03/09 15:01:58;;;;;;;21.00;7.70;;;;;;;10.40;62.44;99733.80;110934;1270;22366;-87
2024/03/09 15:04:51;;;;;;;20.00;8.10;;;;;;;10.38;62.34;99736.13;111028;1262;22334;-86
2024/03/09 15:07:43;;;;;;;16.80;5.80;;;;;;;10.35;62.10;99733.82;110893;1265;22158;-86
2024/03/09 15:10:34;;;;;;;19.70;7.50;;;;;;;10.33;62.42;99732.66;111068;1265;22087;-87
2024/03/09 15:13:26;;;;;;;18.80;7.40;;;;;;;10.32;62.39;99735.46;111019;1260;22761;-86
2024/03/09 15:16:22;;;;;;;21.90;7.10;;;;;;;10.30;62.21;99731.73;111007;1267;22217;-86
2024/03/09 15:19:15;;;;;;;21.30;8.00;;;;;;;10.28;62.18;99734.98;110929;1265;23916;-86
2024/03/09 15:22:06;;;;;;;21.80;7.30;;;;;;;10.25;62.20;99736.02;110985;1266;22243;-86
2024/03/09 15:25:09;;;;;;;31.40;10.60;;;;;;;10.24;62.25;99738.27;111040;1265;22192;-87
2024/03/09 15:28:00;;;;;;;14.70;5.40;;;;;;;10.21;62.23;99736.18;111012;1265;22218;-87
2024/03/09 15:30:53;;;;;;;18.50;6.70;;;;;;;10.19;61.95;99738.02;110947;1268;22142;-87
2024/03/09 15:33:46;;;;;;;14.70;5.20;;;;;;;10.15;61.78;99732.40;110998;1264;22128;-87
2024/03/09 15:36:39;;;;;;;19.70;4.80;;;;;;;10.14;61.78;99735.62;110955;1271;22919;-88
2024/03/09 15:39:32;;;;;;;13.80;4.90;;;;;;;10.10;61.68;99731.97;110985;1264;22260;-88
2024/03/09 15:42:25;;;;;;;19.10;7.10;;;;;;;10.08;61.72;99732.98;110889;1264;22129;-87
2024/03/09 15:45:19;;;;;;;23.10;7.90;;;;;;;10.06;61.65;99732.30;111024;1264;22256;-87
2024/03/09 15:48:14;;;;;;;23.10;7.80;;;;;;;10.05;61.76;99724.27;111008;1264;22797;-87
2024/03/09 15:51:10;;;;;;;21.30;7.20;;;;;;;10.03;61.59;99725.02;110900;1271;22267;-87
2024/03/09 15:54:03;;;;;;;24.80;10.30;;;;;;;10.01;61.86;99724.16;110823;1268;23066;-87
2024/03/09 15:56:56;;;;;;;23.60;8.40;;;;;;;9.98;61.71;99717.14;110904;1270;22204;-87
2024/03/09 15:59:50;;;;;;;22.20;8.50;;;;;;;9.96;61.82;99718.14;111142;1271;22261;-87
2024/03/09 16:02:44;;;;;;;21.00;7.60;;;;;;;9.94;61.91;99716.11;111053;1271;22190;-87
2024/03/09 16:05:38;;;;;;;17.40;6.90;;;;;;;9.93;61.92;99707.98;110972;1265;22269;-88
2024/03/09 16:08:33;;;;;;;20.30;7.70;;;;;;;9.91;61.92;99711.35;110907;1267;22151;-88
2024/03/09 16:11:25;;;;;;;16.60;6.00;;;;;;;9.88;61.87;99706.81;110908;1270;22104;-85
2024/03/09 16:14:18;;;;;;;23.20;7.10;;;;;;;9.86;61.78;99706.06;110920;1264;22393;-86
2024/03/09 16:17:16;;;;;;;22.20;8.90;;;;;;;9.85;62.17;99705.36;110920;1265;22337;-86
2024/03/09 16:20:13;;;;;;;17.80;6.30;;;;;;;9.84;61.85;99702.40;110958;1265;22129;-86
2024/03/09 16:23:06;;;;;;;19.60;6.60;;;;;;;9.81;61.81;99696.95;110927;1269;22460;-87
2024/03/09 16:25:59;;;;;;;22.20;8.30;;;;;;;9.78;61.77;99696.65;110997;1264;22154;-86
2024/03/09 16:28:52;;;;;;;24.80;9.80;;;;;;;9.78;62.26;99693.09;110968;1271;22239;-86
2024/03/09 16:31:45;;;;;;;26.20;9.50;;;;;;;9.76;62.13;99693.19;110977;1271;22175;-86
2024/03/09 16:34:39;;;;;;;23.60;9.30;;;;;;;9.74;62.28;99690.25;111032;1268;22154;-86
2024/03/09 16:37:32;;;;;;;18.60;6.40;;;;;;;9.73;62.47;99692.42;110939;1267;22198;-86
2024/03/09 16:40:23;;;;;;;22.50;9.50;;;;;;;9.71;62.57;99691.98;110891;1264;22246;-86
2024/03/09 16:43:20;;;;;;;27.10;10.80;;;;;;;9.68;62.67;99695.74;110898;1268;22361;-88
2024/03/09 16:46:12;;;;;;;33.00;16.10;;;;;;;9.65;62.73;99696.53;111016;1271;22207;-87
2024/03/09 16:49:08;;;;;;;37.20;17.00;;;;;;;9.63;62.83;99694.36;110997;1265;22992;-89
2024/03/09 16:52:02;;;;;;;31.70;16.20;;;;;;;9.61;63.10;99699.06;110869;1265;22389;-89
2024/03/09 16:55:00;;;;;;;27.50;12.30;;;;;;;9.58;62.98;99697.74;111027;1267;22180;-90
2024/03/09 16:57:52;;;;;;;23.00;9.50;;;;;;;9.55;63.08;99705.60;110938;1268;22997;-86
2024/03/09 17:00:43;;;;;;;19.90;8.50;;;;;;;9.53;63.21;99705.17;110913;1269;22125;-86
2024/03/09 17:03:34;;;;;;;23.40;9.70;;;;;;;9.52;63.33;99705.03;111001;1267;22939;-86
2024/03/09 17:06:25;;;;;;;26.90;12.00;;;;;;;9.50;63.25;99703.45;111149;1266;22052;-81
2024/03/09 17:09:20;;;;;;;26.90;12.00;;;;;;;9.50;63.27;99704.81;111146;1272;22141;-82
2024/03/09 17:12:11;;;;;;;21.30;8.00;;;;;;;9.48;63.19;99704.79;111110;1272;22118;-84
2024/03/09 17:15:01;;;;;;;21.60;8.60;;;;;;;9.45;63.20;99700.19;111139;1272;22138;-82
2024/03/09 17:17:53;;;;;;;21.20;7.50;;;;;;;9.43;63.27;99698.14;110985;1272;22120;-83
2024/03/09 17:20:45;;;;;;;24.00;9.60;;;;;;;9.41;63.36;99698.40;110988;1272;22108;-83
2024/03/09 17:23:36;;;;;;;25.80;9.20;;;;;;;9.40;63.54;99700.83;110956;1272;23077;-83
2024/03/09 17:26:32;;;;;;;16.60;7.30;;;;;;;9.40;63.70;99708.27;111136;1272;22118;-83
2024/03/09 17:29:22;;;;;;;20.80;8.10;;;;;;;9.38;63.72;99703.41;111116;1272;22076;-83
2024/03/09 17:32:17;;;;;;;19.90;7.60;;;;;;;9.38;63.82;99701.90;111006;1272;22166;-82
2024/03/09 17:35:11;;;;;;;18.00;7.00;;;;;;;9.38;64.02;99708.13;111097;1266;22350;-82
2024/03/09 17:38:02;;;;;;;22.20;8.20;;;;;;;9.36;64.00;99704.09;111169;1268;22589;-83
2024/03/09 17:40:52;;;;;;;25.30;9.70;;;;;;;9.35;64.09;99702.25;111148;1272;22116;-82
2024/03/09 17:43:41;;;;;;;;;;;;;;;9.33;64.00;99701.63;110999;1272;23016;-83
2024/03/09 17:46:32;;;;;;;22.40;8.60;;;;;;;9.32;64.10;99700.44;110973;1273;22319;-84
2024/03/09 17:49:23;;;;;;;28.10;11.00;;;;;;;9.29;64.14;99705.67;110970;1273;22200;-82
2024/03/09 17:52:14;;;;;;;25.40;10.40;;;;;;;9.28;64.22;99705.00;110969;1273;22092;-82
2024/03/09 17:55:06;;;;;;;28.40;10.20;;;;;;;9.28;64.38;99709.24;110876;1273;22551;-84
2024/03/09 17:58:00;;;;;;;28.70;10.60;;;;;;;9.28;64.32;99711.88;110946;1273;22115;-84
2024/03/09 18:00:51;;;;;;;25.20;10.30;;;;;;;9.28;64.39;99711.98;111178;1272;22215;-84
2024/03/09 18:03:43;;;;;;;27.40;11.90;;;;;;;9.26;64.47;99709.42;110967;1272;22981;-84
2024/03/09 18:06:34;;;;;;;32.70;13.40;;;;;;;9.27;64.59;99708.52;110972;1272;22437;-83
2024/03/09 18:09:25;;;;;;;23.00;9.50;;;;;;;9.26;64.37;99704.71;110969;1272;22117;-83
2024/03/09 18:12:16;;;;;;;33.90;14.40;;;;;;;9.27;64.35;99703.20;110975;1273;22956;-82
2024/03/09 18:15:09;;;;;;;37.70;14.80;;;;;;;9.26;64.53;99699.09;110954;1272;22126;-82
2024/03/09 18:18:05;;;;;;;29.10;12.40;;;;;;;9.26;64.58;99697.75;110973;1273;22893;-82
2024/03/09 18:21:00;;;;;;;24.30;10.00;;;;;;;9.25;64.61;99697.50;110975;1273;23166;-83
2024/03/09 18:23:51;;;;;;;31.30;12.20;;;;;;;9.24;64.71;99694.20;111040;1264;22450;-82
2024/03/09 18:26:41;;;;;;;31.70;13.30;;;;;;;9.23;64.64;99690.23;110944;1273;22157;-82
2024/03/09 18:29:33;;;;;;;29.90;11.70;;;;;;;9.23;64.72;99687.89;110962;1272;22969;-82
2024/03/09 18:32:25;;;;;;;30.30;13.00;;;;;;;9.23;64.81;99683.70;110979;1272;22102;-82
2024/03/09 18:35:21;;;;;;;29.10;13.50;;;;;;;9.21;64.93;99684.63;111233;1263;22153;-82
2024/03/09 18:38:13;;;;;;;25.60;10.80;;;;;;;9.21;64.81;99682.70;110983;1272;22342;-82
2024/03/09 18:41:06;;;;;;;24.70;9.50;;;;;;;9.20;64.85;99682.95;110959;1272;22161;-82
2024/03/09 18:43:58;;;;;;;28.60;10.30;;;;;;;9.20;64.98;99681.84;110992;1273;22107;-81
2024/03/09 18:46:53;;;;;;;22.60;9.50;;;;;;;9.20;65.20;99679.76;111074;1272;22272;-81
2024/03/09 18:49:45;;;;;;;24.60;10.60;;;;;;;9.19;65.12;99679.83;111124;1272;22344;-84
2024/03/09 18:52:37;;;;;;;21.80;9.20;;;;;;;9.18;65.11;99680.12;111158;1272;22844;-81
2024/03/09 18:55:29;;;;;;;24.60;10.00;;;;;;;9.17;65.06;99675.65;110967;1273;22844;-82
2024/03/09 18:58:20;;;;;;;22.30;9.20;;;;;;;9.17;65.15;99676.31;110865;1272;23155;-81
2024/03/09 19:01:10;;;;;;;23.60;8.60;;;;;;;9.17;65.11;99672.95;110980;1272;22327;-82
2024/03/09 19:04:01;;;;;;;18.30;7.60;;;;;;;9.17;64.99;99672.92;111000;1272;22149;-81
2024/03/09 19:06:52;;;;;;;26.30;9.30;;;;;;;9.18;65.07;99675.45;111101;1272;22156;-82
2024/03/09 19:09:43;;;;;;;22.60;8.60;;;;;;;9.16;65.19;99673.92;111156;1272;22769;-82
2024/03/09 19:12:35;;;;;;;22.00;8.00;;;;;;;9.15;65.34;99671.77;111120;1272;22774;-82
2024/03/09 19:15:26;;;;;;;21.10;8.70;;;;;;;9.14;65.29;99670.04;111099;1272;22137;-82
2024/03/09 19:18:20;;;;;;;21.50;8.30;;;;;;;9.13;65.27;99668.66;110987;1272;22164;-81
2024/03/09 19:21:11;;;;;;;20.90;8.00;;;;;;;9.12;65.36;99670.05;111085;1272;22582;-83
2024/03/09 19:24:04;;;;;;;19.70;7.60;;;;;;;9.10;65.51;99667.45;110929;1273;23008;-84
2024/03/09 19:26:55;;;;;;;20.20;8.70;;;;;;;9.09;65.52;99670.52;111126;1272;22119;-82
2024/03/09 19:29:46;;;;;;;22.30;9.50;;;;;;;9.08;65.76;99668.21;111127;1272;22224;-83
2024/03/09 19:32:38;;;;;;;25.50;10.80;;;;;;;9.06;65.67;99668.45;110902;1273;22195;-83
2024/03/09 19:35:29;;;;;;;24.60;9.80;;;;;;;9.04;65.71;99660.86;111104;1272;22381;-81
2024/03/09 19:38:20;;;;;;;22.50;8.80;;;;;;;9.02;65.74;99655.73;111175;1266;22089;-80
2024/03/09 19:41:11;;;;;;;22.90;9.70;;;;;;;9.00;65.73;99651.84;111128;1271;22592;-83
2024/03/09 19:44:03;;;;;;;23.30;9.00;;;;;;;8.99;65.92;99649.51;111179;1271;22713;-81
2024/03/09 19:46:55;;;;;;;19.40;8.10;;;;;;;8.99;65.95;99652.88;111178;1271;23104;-80
2024/03/09 19:49:46;;;;;;;24.50;9.00;;;;;;;8.97;66.11;99652.81;111176;1271;22182;-79
2024/03/09 19:52:38;;;;;;;23.50;9.70;;;;;;;8.95;66.21;99655.52;111152;1271;22097;-82
2024/03/09 19:55:28;;;;;;;23.80;8.90;;;;;;;8.94;66.23;99653.36;110844;1273;22154;-81
2024/03/09 19:58:20;;;;;;;20.00;7.70;;;;;;;8.93;66.59;99650.17;110941;1272;23027;-80
2024/03/09 20:01:14;;;;;;;22.90;8.50;;;;;;;8.91;66.61;99645.44;110945;1273;22096;-81
2024/03/09 20:04:07;;;;;;;24.50;9.70;;;;;;;8.90;66.60;99643.75;110849;1273;22116;-81
2024/03/09 20:06:59;;;;;;;23.70;8.80;;;;;;;8.87;66.65;99642.95;111067;1272;23145;-80
2024/03/09 20:09:50;;;;;;;27.50;9.30;;;;;;;8.85;66.91;99646.51;111133;1272;22898;-80
2024/03/09 20:12:41;;;;;;;25.00;10.20;;;;;;;8.84;66.84;99649.27;111151;1272;22798;-80
2024/03/09 20:15:33;;;;;;;26.90;11.10;;;;;;;8.83;67.06;99648.98;111129;1269;22209;-83
2024/03/09 20:18:24;;;;;;;29.50;11.60;;;;;;;8.80;67.07;99645.40;111124;1271;22260;-82
2024/03/09 20:21:16;;;;;;;26.70;11.40;;;;;;;8.77;67.22;99647.33;111096;1269;22143;-82
2024/03/09 20:24:12;;;;;;;25.90;11.70;;;;;;;8.74;67.15;99647.58;110788;1272;22784;-84
2024/03/09 20:27:03;;;;;;;33.20;12.50;;;;;;;8.69;67.17;99647.50;110988;1266;22189;-83
2024/03/09 20:29:54;;;;;;;34.00;14.00;;;;;;;8.65;67.33;99649.90;110970;1273;22336;-84
2024/03/09 20:33:33;;;;;;;31.90;12.70;;;;;;;8.59;67.42;99648.30;110958;1272;22067;-83
2024/03/09 20:36:51;;;;;;;27.80;11.80;;;;;;;8.55;67.57;99651.65;111079;1267;22101;-85
2024/03/09 20:39:42;;;;;;;28.00;11.20;;;;;;;8.52;67.62;99654.89;111102;1272;22289;-84
2024/03/09 20:42:32;;;;;;;24.80;11.40;;;;;;;8.49;67.75;99652.91;111105;1272;23025;-84
2024/03/09 20:45:22;;;;;;;;;;;;;;;8.48;68.02;99653.38;111159;1260;22218;-83
2024/03/09 20:48:13;;;;;;;25.80;11.00;;;;;;;8.43;68.02;99644.87;110819;1266;22357;-85
2024/03/09 20:51:05;;;;;;;31.20;13.80;;;;;;;8.39;68.14;99644.30;111126;1272;22034;-86
2024/03/09 20:54:02;;;;;;;34.00;14.40;;;;;;;8.35;68.29;99639.66;110914;1273;22153;-85
2024/03/09 20:56:54;;;;;;;31.30;13.10;;;;;;;8.32;68.44;99644.55;110968;1272;22154;-81
2024/03/09 20:59:48;;;;;;;32.50;15.10;;;;;;;8.29;68.43;99644.40;110810;1272;22161;-83
2024/03/09 21:02:40;;;;;;;34.80;14.20;;;;;;;8.27;68.61;99644.16;110965;1272;22959;-83
2024/03/09 21:05:31;;;;;;;34.20;14.40;;;;;;;8.26;68.70;99643.17;110923;1273;22155;-81
2024/03/09 21:08:21;;;;;;;36.70;14.50;;;;;;;8.23;69.05;99640.38;110934;1272;22162;-83
2024/03/09 21:11:11;;;;;;;;;;;;;;;8.21;69.01;99638.81;110995;1272;22309;-83
2024/03/09 21:14:02;;;;;;;35.80;15.50;;;;;;;8.16;68.96;99642.56;110976;1272;22301;-83
2024/03/09 21:16:53;;;;;;;35.40;16.80;;;;;;;8.10;68.96;99638.66;110841;1273;22139;-83
2024/03/09 21:19:44;;;;;;;36.30;16.90;;;;;;;8.06;69.27;99638.80;110841;1273;22268;-84
2024/03/09 21:22:35;;;;;;;38.10;15.90;;;;;;;8.01;69.16;99639.60;110819;1273;22144;-84
2024/03/09 21:25:26;;;;;;;34.80;16.20;;;;;;;7.97;69.36;99640.30;110843;1273;22027;-85
2024/03/09 21:28:18;;;;;;;44.20;19.10;;;;;;;7.93;69.41;99646.87;110851;1273;22971;-83
2024/03/09 21:31:11;;;;;;;37.60;17.50;;;;;;;7.89;69.64;99639.11;110846;1273;22136;-83
2024/03/09 21:34:02;;;;;;;39.70;18.00;;;;;;;7.89;69.88;99638.24;110806;1273;22164;-84
2024/03/09 21:36:55;;;;;;;42.60;18.50;;;;;;;7.89;69.98;99631.02;110834;1273;22709;-83